Alta, West Virginia
Current Conditions -  °F | °C
As of 11:35 AM on Wednesday 26 Nov 2014 (Local Time) from KLWB Reporting Station
Light Snow Light Snow  
Wind Chill: 35°   Ceiling: 600
Heat Index: 35°   Visibility: 0.75mi
Dew Point: 33°   Wind: 0mph
Humidity: 95%   Direction: NA
Pressure: 29.96"   Gusts: NA
Location:  37.8345°N, 80.5736°W
Report Text: KLWB 261635Z AUTO 00000KT 3/4SM -SN OVC006 02/01 A2996 RMK AO2 P0004 T00150008
Loading
Personal Weather Stations






























Interactive Weather Map New forecast layout! Learn more

10-Day Weather Forecast

Advertisements
Track Severe Weather on mobile